createdAt,value
2022-11-24T00:01:22.018Z,19.80
2022-11-24T00:03:57.464Z,19.30
2022-11-24T00:06:26.129Z,12.50
2022-11-24T00:08:54.846Z,6.40
2022-11-24T00:11:25.731Z,6.10
2022-11-24T00:13:53.998Z,7.10
2022-11-24T00:16:25.832Z,8.40
2022-11-24T00:18:55.878Z,10.60
2022-11-24T00:21:25.511Z,14.30
2022-11-24T00:23:53.781Z,16.40
2022-11-24T00:26:25.578Z,13.30
2022-11-24T00:28:55.642Z,10.10
2022-11-24T00:31:27.602Z,12.90
2022-11-24T00:33:59.827Z,14.10
2022-11-24T00:36:30.978Z,15.10
2022-11-24T00:39:01.830Z,12.80
2022-11-24T00:41:31.218Z,14.70
2022-11-24T00:43:59.817Z,13.50
2022-11-24T00:46:28.613Z,16.90
2022-11-24T00:49:00.534Z,19.40
2022-11-24T00:51:30.436Z,25.40
2022-11-24T00:54:00.487Z,24.60
2022-11-24T00:56:29.778Z,25.30
2022-11-24T00:58:58.250Z,23.20
2022-11-24T01:01:34.429Z,19.30
2022-11-24T01:04:02.588Z,21.20
2022-11-24T01:06:34.023Z,19.20
2022-11-24T01:09:03.514Z,17.90
2022-11-24T01:11:54.064Z,17.50
2022-11-24T01:14:23.659Z,19.40
2022-11-24T01:16:52.617Z,17.30
2022-11-24T01:19:21.229Z,25.00
2022-11-24T01:21:49.630Z,29.30
2022-11-24T01:24:18.173Z,17.70
2022-11-24T01:26:46.505Z,9.90
2022-11-24T01:29:14.650Z,13.40
2022-11-24T01:31:42.409Z,13.40
2022-11-24T01:34:10.255Z,11.40
2022-11-24T01:36:38.207Z,15.10
2022-11-24T01:39:06.077Z,17.80
2022-11-24T01:41:35.309Z,17.00
2022-11-24T01:44:28.159Z,18.60
2022-11-24T01:47:08.381Z,18.60
2022-11-24T01:49:44.221Z,19.40
2022-11-24T01:52:19.913Z,17.90
2022-11-24T01:54:55.080Z,17.00
2022-11-24T01:57:27.679Z,22.20
2022-11-24T02:00:02.146Z,16.40
2022-11-24T02:02:43.321Z,19.30
2022-11-24T02:05:21.455Z,17.00
2022-11-24T02:07:51.707Z,18.10
2022-11-24T02:10:20.513Z,19.20
2022-11-24T02:12:53.520Z,18.90
2022-11-24T02:15:22.597Z,17.00
2022-11-24T02:17:50.379Z,17.10
2022-11-24T02:20:18.617Z,19.50
2022-11-24T02:22:57.337Z,19.90
2022-11-24T02:25:42.684Z,19.00
2022-11-24T02:28:16.041Z,19.80
2022-11-24T02:30:44.674Z,20.50
2022-11-24T02:33:13.496Z,20.60
2022-11-24T02:35:41.388Z,21.90
2022-11-24T02:38:13.636Z,27.70
2022-11-24T02:40:47.539Z,29.40
2022-11-24T02:43:22.134Z,21.70
2022-11-24T02:45:50.206Z,24.10
2022-11-24T02:48:18.124Z,20.90
2022-11-24T02:50:45.989Z,23.60
2022-11-24T02:53:13.727Z,25.00
2022-11-24T02:55:41.526Z,22.30
2022-11-24T02:58:09.561Z,32.30
2022-11-24T03:00:37.646Z,27.20
2022-11-24T03:03:05.737Z,25.60
2022-11-24T03:05:33.573Z,26.10
2022-11-24T03:08:01.402Z,22.00
2022-11-24T03:10:29.212Z,23.00
2022-11-24T03:12:57.326Z,27.00
2022-11-24T03:15:25.111Z,27.20
2022-11-24T03:17:55.671Z,29.80
2022-11-24T03:20:24.147Z,26.00
2022-11-24T03:22:52.072Z,28.10
2022-11-24T03:25:19.870Z,20.60
2022-11-24T03:27:48.066Z,25.50
2022-11-24T03:30:16.411Z,22.10
2022-11-24T03:32:44.186Z,20.90
2022-11-24T03:35:12.156Z,23.20
2022-11-24T03:37:39.868Z,21.70
2022-11-24T03:40:08.123Z,26.20
2022-11-24T03:42:35.965Z,23.10
2022-11-24T03:45:30.023Z,25.70
2022-11-24T03:47:52.393Z,28.10
2022-11-24T03:50:20.169Z,28.10
2022-11-24T03:52:47.933Z,29.50
2022-11-24T03:55:15.883Z,26.90
2022-11-24T03:57:43.621Z,29.00
2022-11-24T04:00:12.415Z,26.80
2022-11-24T04:02:40.314Z,23.00
2022-11-24T04:05:08.422Z,21.70
2022-11-24T04:07:36.367Z,27.30
2022-11-24T04:10:05.186Z,24.10
2022-11-24T04:12:47.981Z,21.30
2022-11-24T04:15:18.474Z,20.10
2022-11-24T04:17:50.030Z,22.10
2022-11-24T04:20:18.039Z,23.80
2022-11-24T04:22:45.846Z,20.70
2022-11-24T04:25:17.508Z,23.20
2022-11-24T04:27:46.521Z,25.20
2022-11-24T04:30:14.358Z,25.50
2022-11-24T04:32:42.504Z,25.10
2022-11-24T04:35:13.342Z,29.20
2022-11-24T04:37:41.636Z,29.20
2022-11-24T04:40:11.209Z,27.20
2022-11-24T04:42:39.129Z,23.80
2022-11-24T04:45:08.119Z,30.20
2022-11-24T04:47:35.957Z,29.40
2022-11-24T04:50:04.861Z,29.40
2022-11-24T04:52:32.625Z,28.60
2022-11-24T04:55:00.357Z,31.40
2022-11-24T04:57:28.365Z,32.90
2022-11-24T04:59:56.310Z,32.60
2022-11-24T05:02:24.576Z,30.80
2022-11-24T05:04:52.553Z,33.80
2022-11-24T05:07:20.478Z,36.60
2022-11-24T05:10:05.263Z,35.80
2022-11-24T05:12:33.604Z,35.70
2022-11-24T05:15:02.861Z,31.60
2022-11-24T05:17:32.263Z,70.60
2022-11-24T05:20:00.523Z,30.20
2022-11-24T05:22:29.867Z,30.10
2022-11-24T05:24:58.736Z,24.10
2022-11-24T05:27:26.584Z,27.00
2022-11-24T05:29:54.545Z,29.50
2022-11-24T05:32:22.343Z,28.60
2022-11-24T05:34:50.567Z,28.90
2022-11-24T05:37:18.317Z,30.90
2022-11-24T05:39:46.089Z,30.30
2022-11-24T05:42:27.220Z,31.10
2022-11-24T05:44:55.233Z,31.50
2022-11-24T05:47:23.920Z,24.60
2022-11-24T05:49:52.019Z,27.40
2022-11-24T05:52:19.856Z,25.00
2022-11-24T05:54:47.810Z,26.90
2022-11-24T05:57:17.341Z,25.00
2022-11-24T05:59:45.524Z,24.90
2022-11-24T06:02:14.121Z,24.90
2022-11-24T06:04:42.010Z,23.20
2022-11-24T06:07:12.112Z,19.20
2022-11-24T06:09:41.285Z,19.30
2022-11-24T06:12:13.369Z,23.40
2022-11-24T06:14:41.770Z,32.60
2022-11-24T06:17:10.580Z,37.40
2022-11-24T06:19:41.929Z,30.20
2022-11-24T06:22:10.003Z,31.70
2022-11-24T06:24:37.923Z,36.10
2022-11-24T06:27:08.806Z,27.90
2022-11-24T06:29:38.137Z,30.00
2022-11-24T06:32:06.367Z,27.30
2022-11-24T06:34:34.628Z,23.80
2022-11-24T06:37:02.849Z,21.20
2022-11-24T06:39:30.860Z,23.80
2022-11-24T06:41:58.791Z,22.60
2022-11-24T06:44:26.809Z,23.70
2022-11-24T06:46:56.091Z,19.00
2022-11-24T06:49:24.491Z,18.80
2022-11-24T06:51:54.709Z,22.80
2022-11-24T06:54:23.221Z,14.60
2022-11-24T06:56:58.913Z,20.20
2022-11-24T06:59:29.605Z,16.10
2022-11-24T07:01:57.551Z,22.50
2022-11-24T07:04:28.464Z,23.00
2022-11-24T07:07:21.817Z,20.30
2022-11-24T07:10:18.214Z,23.60
2022-11-24T07:13:13.921Z,21.20
2022-11-24T07:15:51.257Z,9.60
2022-11-24T07:18:26.432Z,11.20
2022-11-24T07:21:01.777Z,21.70
2022-11-24T07:23:54.121Z,20.30
2022-11-24T07:26:25.815Z,15.80
2022-11-24T07:29:02.172Z,17.70
2022-11-24T07:31:46.352Z,21.90
2022-11-24T07:34:50.024Z,23.50
2022-11-24T07:39:03.027Z,19.30
2022-11-24T07:42:19.924Z,29.20
2022-11-24T07:46:16.406Z,23.30
2022-11-24T07:49:13.275Z,16.80
2022-11-24T07:53:35.802Z,16.80
2022-11-24T08:12:19.303Z,8.40
2022-11-24T08:19:19.510Z,5.40
2022-11-24T08:22:40.484Z,12.20
2022-11-24T08:25:29.546Z,9.40
2022-11-24T08:28:31.670Z,8.20
2022-11-24T08:35:23.557Z,6.30
2022-11-24T08:38:28.355Z,5.00
2022-11-24T08:41:27.173Z,7.30
2022-11-24T08:44:30.645Z,6.80
2022-11-24T08:47:47.147Z,5.30
2022-11-24T08:58:25.664Z,8.70
2022-11-24T09:01:26.625Z,6.10
2022-11-24T09:05:01.082Z,5.60
2022-11-24T09:05:07.269Z,4.40
2022-11-24T09:54:58.680Z,1.00
2022-11-24T10:30:13.174Z,1.70
2022-11-24T10:32:47.074Z,3.40
2022-11-24T10:35:36.903Z,3.60
2022-11-24T10:38:23.078Z,1.50
2022-11-24T10:41:02.548Z,1.40
2022-11-24T10:43:40.939Z,2.20
2022-11-24T10:46:19.332Z,7.20
2022-11-24T10:49:45.433Z,1.00
2022-11-24T10:52:06.691Z,0.90
2022-11-24T10:54:57.537Z,2.30
2022-11-24T10:57:40.738Z,1.60
2022-11-24T11:00:56.344Z,3.30
2022-11-24T11:09:33.525Z,0.70
2022-11-24T11:48:50.074Z,2.00
2022-11-24T12:12:39.801Z,1.50
2022-11-24T12:15:36.098Z,1.20
2022-11-24T12:18:56.530Z,2.40
2022-11-24T12:21:39.526Z,1.50
2022-11-24T12:24:28.660Z,3.00
2022-11-24T12:27:05.911Z,1.90
2022-11-24T12:29:57.533Z,2.60
2022-11-24T12:33:02.807Z,3.20
2022-11-24T12:35:43.394Z,2.40
2022-11-24T12:38:56.557Z,1.30
2022-11-24T12:41:46.290Z,0.90
2022-11-24T12:44:47.419Z,1.30
2022-11-24T12:47:54.771Z,1.00
2022-11-24T12:51:28.314Z,1.10
2022-11-24T12:54:14.680Z,0.90
2022-11-24T12:57:24.251Z,1.00
2022-11-24T13:04:20.604Z,1.20
2022-11-24T13:07:17.981Z,1.00
2022-11-24T13:10:34.878Z,1.20
2022-11-24T13:13:32.379Z,1.70
2022-11-24T13:16:59.263Z,1.20
2022-11-24T13:19:28.449Z,0.80
2022-11-24T13:22:08.673Z,1.40
2022-11-24T13:24:49.622Z,1.40
2022-11-24T13:27:27.807Z,1.00
2022-11-24T13:30:14.952Z,2.20
2022-11-24T13:45:49.988Z,1.10
2022-11-24T13:50:05.725Z,1.40
2022-11-24T15:11:50.513Z,2.40
2022-11-24T15:14:39.011Z,6.70
2022-11-24T15:17:19.501Z,5.90
2022-11-24T15:19:55.126Z,4.80
2022-11-24T15:22:46.132Z,4.00
2022-11-24T15:25:34.568Z,3.90
2022-11-24T15:28:03.345Z,3.70
2022-11-24T15:30:37.206Z,7.90
2022-11-24T15:33:18.154Z,3.90
2022-11-24T15:35:48.852Z,2.80
2022-11-24T15:38:17.961Z,3.50
2022-11-24T15:40:48.779Z,2.20
2022-11-24T15:53:39.905Z,6.30
2022-11-24T15:56:26.649Z,5.70
2022-11-24T15:59:27.186Z,6.90
2022-11-24T16:02:05.988Z,6.10
2022-11-24T16:04:41.908Z,7.30
2022-11-24T16:07:17.669Z,8.70
2022-11-24T16:09:45.686Z,4.60
2022-11-24T16:12:13.724Z,4.40
2022-11-24T16:14:41.675Z,4.50
2022-11-24T16:17:09.501Z,6.30
2022-11-24T16:19:41.759Z,4.90
2022-11-24T16:22:14.243Z,7.10
2022-11-24T16:24:42.665Z,4.30
2022-11-24T16:27:11.794Z,7.00
2022-11-24T16:29:40.412Z,4.60
2022-11-24T16:32:08.284Z,4.20
2022-11-24T16:34:36.528Z,3.30
2022-11-24T16:37:04.608Z,2.70
2022-11-24T16:39:32.356Z,3.10
2022-11-24T16:42:00.228Z,2.90
2022-11-24T16:44:28.215Z,2.80
2022-11-24T16:46:57.213Z,3.40
2022-11-24T16:49:25.280Z,3.50
2022-11-24T16:51:53.606Z,4.60
2022-11-24T16:54:21.763Z,8.50
2022-11-24T16:56:49.607Z,5.00
2022-11-24T16:59:18.046Z,6.30
2022-11-24T17:01:46.852Z,9.10
2022-11-24T17:04:15.145Z,3.40
2022-11-24T17:06:43.219Z,4.10
2022-11-24T17:09:12.275Z,5.10
2022-11-24T17:11:40.184Z,2.70
2022-11-24T17:14:10.566Z,2.40
2022-11-24T17:16:39.113Z,6.20
2022-11-24T17:19:07.030Z,4.70
2022-11-24T17:21:35.142Z,7.60
2022-11-24T17:24:05.828Z,4.20
2022-11-24T17:26:35.151Z,4.60
2022-11-24T17:29:03.447Z,9.40
2022-11-24T17:31:33.332Z,9.30
2022-11-24T17:34:03.255Z,6.70
2022-11-24T17:36:33.360Z,7.50
2022-11-24T17:39:04.743Z,8.10
2022-11-24T17:41:33.886Z,10.90
2022-11-24T17:44:01.740Z,13.60
2022-11-24T17:46:31.046Z,6.60
2022-11-24T17:48:58.982Z,5.50
2022-11-24T17:51:27.399Z,7.10
2022-11-24T17:53:57.316Z,8.10
2022-11-24T17:56:27.458Z,7.50
2022-11-24T17:58:57.742Z,6.50
2022-11-24T18:01:28.449Z,11.20
2022-11-24T18:03:56.428Z,16.60
2022-11-24T18:06:25.602Z,14.80
2022-11-24T18:08:54.221Z,10.30
2022-11-24T18:11:30.493Z,10.30
2022-11-24T18:14:02.562Z,10.40
2022-11-24T18:16:33.305Z,10.20
2022-11-24T18:19:11.440Z,11.20
2022-11-24T18:21:42.650Z,10.10
2022-11-24T18:24:12.244Z,12.40
2022-11-24T18:26:42.044Z,10.40
2022-11-24T18:29:11.430Z,10.00
2022-11-24T18:31:40.112Z,10.20
2022-11-24T18:34:08.279Z,10.30
2022-11-24T18:36:36.718Z,9.80
2022-11-24T18:39:07.658Z,9.90
2022-11-24T18:41:37.069Z,10.30
2022-11-24T18:44:08.242Z,8.10
2022-11-24T18:46:37.787Z,8.10
2022-11-24T18:49:07.393Z,8.40
2022-11-24T18:51:35.802Z,7.10
2022-11-24T18:54:05.605Z,7.50
2022-11-24T18:56:33.954Z,8.30
2022-11-24T18:59:01.769Z,7.10
2022-11-24T19:01:30.036Z,8.60
2022-11-24T19:04:01.727Z,9.80
2022-11-24T19:06:34.410Z,10.30
2022-11-24T19:09:07.578Z,9.20
2022-11-24T19:11:38.362Z,11.90
2022-11-24T19:14:08.563Z,13.30
2022-11-24T19:16:36.558Z,14.90
2022-11-24T19:19:05.009Z,13.50
2022-11-24T19:21:37.177Z,13.50
2022-11-24T19:24:07.371Z,13.30
2022-11-24T19:26:35.348Z,15.30
2022-11-24T19:29:04.849Z,11.60
2022-11-24T19:31:33.286Z,10.80
2022-11-24T19:34:03.137Z,8.60
2022-11-24T19:36:31.632Z,11.30
2022-11-24T19:38:59.867Z,10.70
2022-11-24T19:41:32.147Z,8.50
2022-11-24T19:44:00.215Z,12.20
2022-11-24T19:46:29.886Z,8.80
2022-11-24T19:49:01.693Z,9.10
2022-11-24T19:51:33.339Z,11.50
2022-11-24T19:54:02.446Z,8.90
2022-11-24T19:56:34.817Z,12.00
2022-11-24T19:59:05.137Z,10.50
2022-11-24T20:01:37.484Z,12.90
2022-11-24T20:04:08.438Z,11.50
2022-11-24T20:06:39.661Z,13.40
2022-11-24T20:09:10.542Z,14.10
2022-11-24T20:11:38.860Z,15.20
2022-11-24T20:14:08.409Z,14.00
2022-11-24T20:16:36.832Z,11.50
2022-11-24T20:19:08.565Z,13.70
2022-11-24T20:21:37.923Z,13.50
2022-11-24T20:24:11.220Z,17.50
2022-11-24T20:26:43.184Z,12.80
2022-11-24T20:29:12.927Z,14.00
2022-11-24T20:31:43.850Z,14.10
2022-11-24T20:34:12.652Z,11.60
2022-11-24T20:36:42.467Z,14.20
2022-11-24T20:39:16.584Z,14.80
2022-11-24T20:41:45.672Z,14.90
2022-11-24T20:44:16.143Z,13.20
2022-11-24T20:46:45.848Z,14.10
2022-11-24T20:49:17.363Z,53.30
2022-11-24T20:51:48.689Z,40.10
2022-11-24T20:54:18.573Z,41.60
2022-11-24T20:56:47.552Z,23.50
2022-11-24T20:59:21.458Z,19.50
2022-11-24T21:01:51.192Z,19.50
2022-11-24T21:04:23.216Z,16.90
2022-11-24T21:06:51.083Z,32.10
2022-11-24T21:09:19.546Z,24.10
2022-11-24T21:11:48.245Z,21.90
2022-11-24T21:14:16.078Z,17.30
2022-11-24T21:16:44.685Z,16.80
2022-11-24T21:19:14.757Z,16.60
2022-11-24T21:21:43.346Z,16.90
2022-11-24T21:24:21.650Z,14.40
2022-11-24T21:26:52.600Z,14.00
2022-11-24T21:29:23.658Z,16.30
2022-11-24T21:31:52.589Z,13.10
2022-11-24T21:34:20.573Z,15.20
2022-11-24T21:36:49.417Z,16.60
2022-11-24T21:39:17.693Z,13.20
2022-11-24T21:41:45.522Z,13.80
2022-11-24T21:44:13.924Z,13.90
2022-11-24T21:46:48.049Z,11.50
2022-11-24T21:49:18.963Z,12.20
2022-11-24T21:51:47.311Z,12.30
2022-11-24T21:54:15.072Z,12.50
2022-11-24T21:56:42.868Z,14.20
2022-11-24T21:59:10.634Z,13.30
2022-11-24T22:01:38.738Z,10.70
2022-11-24T22:04:09.677Z,13.80
2022-11-24T22:06:37.605Z,11.60
2022-11-24T22:09:05.724Z,10.60
2022-11-24T22:11:33.750Z,10.60
2022-11-24T22:14:01.695Z,11.50
2022-11-24T22:16:29.815Z,9.00
2022-11-24T22:18:59.953Z,11.60
2022-11-24T22:21:33.174Z,12.20
2022-11-24T22:24:01.963Z,14.00
2022-11-24T22:26:30.676Z,13.70
2022-11-24T22:28:58.921Z,12.60
2022-11-24T22:31:29.805Z,12.70
2022-11-24T22:34:01.207Z,12.10
2022-11-24T22:36:30.581Z,11.50
2022-11-24T22:39:06.741Z,11.10
2022-11-24T22:41:35.709Z,13.70
2022-11-24T22:44:04.661Z,19.40
2022-11-24T22:46:32.984Z,15.20
2022-11-24T22:49:04.714Z,14.10
2022-11-24T22:51:34.822Z,19.60
2022-11-24T22:54:05.095Z,17.10
2022-11-24T22:56:34.275Z,16.90
2022-11-24T22:59:03.210Z,19.20
2022-11-24T23:01:36.259Z,18.00
2022-11-24T23:04:04.980Z,19.70
2022-11-24T23:06:33.835Z,17.60
2022-11-24T23:09:03.500Z,19.40
2022-11-24T23:11:38.226Z,24.10
2022-11-24T23:14:12.281Z,19.00
2022-11-24T23:16:41.044Z,23.00
2022-11-24T23:19:09.242Z,21.70
2022-11-24T23:21:38.524Z,19.60
2022-11-24T23:24:08.150Z,21.00
2022-11-24T23:26:38.831Z,19.30
2022-11-24T23:29:07.412Z,16.20
2022-11-24T23:31:35.553Z,15.60
2022-11-24T23:34:03.979Z,13.40
2022-11-24T23:36:33.216Z,10.60
2022-11-24T23:39:03.135Z,12.30
2022-11-24T23:41:33.230Z,10.10
2022-11-24T23:44:01.056Z,12.60
2022-11-24T23:46:29.542Z,11.40
2022-11-24T23:48:57.820Z,11.60
2022-11-24T23:51:28.563Z,10.90
2022-11-24T23:53:57.572Z,10.60
2022-11-24T23:56:28.327Z,12.70
2022-11-24T23:58:56.040Z,16.20
